Weather at Castellon de la Plana Aerodrome

Public forecast

Using degrees Celsius for public forecast. Weather courtesy of forecast.io.

Closest aviation weather report (METAR) to Castellon de la Plana Aerodrome

Closest report is Valencia Airport, 38.6 nm (71.4 km) SW. Retrieved 2022/01/16 18:00 UTC (17 minutes ago):

LEVC 161800Z 14002KT CAVOK 10/04 Q1030 NOSIG

Closest aviation forecast (TAF) to Castellon de la Plana Aerodrome

Closest forecast is Castell√≥n-Costa Azahar Airport, 13.1 nm (24.2 km) N. Retrieved 2022/01/16 18:00 UTC (17 minutes ago):

TAF LECH 161700Z 1618/1718 VRB03KT CAVOK TX13/1713Z TNM01/1706Z